createdAt,value
2022-08-21T00:04:48.269Z,9.40
2022-08-21T00:10:01.938Z,9.30
2022-08-21T00:15:08.502Z,8.60
2022-08-21T00:20:14.031Z,9.10
2022-08-21T00:25:17.683Z,9.40
2022-08-21T00:30:25.326Z,9.50
2022-08-21T00:35:35.229Z,9.20
2022-08-21T00:40:47.245Z,9.30
2022-08-21T00:45:51.587Z,9.50
2022-08-21T00:51:03.982Z,9.10
2022-08-21T00:56:10.320Z,9.70
2022-08-21T01:01:16.721Z,10.20
2022-08-21T01:06:22.198Z,10.10
2022-08-21T01:11:25.809Z,10.00
2022-08-21T01:16:30.255Z,10.40
2022-08-21T01:21:33.955Z,11.00
2022-08-21T01:26:37.772Z,10.70
2022-08-21T01:31:40.794Z,10.80
2022-08-21T01:36:45.524Z,12.00
2022-08-21T01:41:48.338Z,11.00
2022-08-21T01:46:52.060Z,11.40
2022-08-21T01:51:54.961Z,11.10
2022-08-21T01:56:59.203Z,10.80
2022-08-21T02:02:02.132Z,10.70
2022-08-21T02:07:05.056Z,11.70
2022-08-21T02:12:12.396Z,12.00
2022-08-21T02:17:15.297Z,11.10
2022-08-21T02:22:18.140Z,10.80
2022-08-21T02:27:26.226Z,11.60
2022-08-21T02:32:29.860Z,11.50
2022-08-21T02:37:32.923Z,11.00
2022-08-21T02:42:36.512Z,12.00
2022-08-21T02:47:40.003Z,11.80
2022-08-21T02:52:42.756Z,11.10
2022-08-21T02:57:45.628Z,12.60
2022-08-21T03:02:49.875Z,11.80
2022-08-21T03:07:53.621Z,12.50
2022-08-21T03:12:56.687Z,12.20
2022-08-21T03:17:59.793Z,12.20
2022-08-21T03:23:04.493Z,11.10
2022-08-21T03:28:20.336Z,11.80
2022-08-21T03:33:23.691Z,11.70
2022-08-21T03:38:28.336Z,13.70
2022-08-21T03:43:32.870Z,13.20
2022-08-21T03:48:37.648Z,12.50
2022-08-21T03:53:40.970Z,13.10
2022-08-21T03:58:45.183Z,12.00
2022-08-21T04:03:48.058Z,11.90
2022-08-21T04:08:50.922Z,10.60
2022-08-21T04:13:54.608Z,11.60
2022-08-21T04:18:57.961Z,12.10
2022-08-21T04:24:00.867Z,12.40
2022-08-21T04:29:07.582Z,12.20
2022-08-21T04:34:13.820Z,11.50
2022-08-21T04:39:16.672Z,12.30
2022-08-21T04:44:20.404Z,11.80
2022-08-21T04:49:23.601Z,12.50
2022-08-21T04:54:26.536Z,12.90
2022-08-21T04:59:34.259Z,12.80
2022-08-21T05:04:43.778Z,12.70
2022-08-21T05:09:47.144Z,12.20
2022-08-21T05:14:50.018Z,12.10
2022-08-21T05:19:53.488Z,12.60
2022-08-21T05:24:58.228Z,13.00
2022-08-21T05:30:01.067Z,11.60
2022-08-21T05:35:06.839Z,12.50
2022-08-21T05:40:22.586Z,12.40
2022-08-21T05:45:41.529Z,12.00
2022-08-21T05:50:48.834Z,12.20
2022-08-21T05:55:53.405Z,10.80
2022-08-21T06:00:56.748Z,11.40
2022-08-21T06:05:59.995Z,11.70
2022-08-21T06:11:04.467Z,11.20
2022-08-21T06:16:15.858Z,11.80
2022-08-21T06:21:20.577Z,11.10
2022-08-21T06:26:24.700Z,11.50
2022-08-21T06:31:29.580Z,11.30
2022-08-21T06:36:32.636Z,11.10
2022-08-21T06:41:38.994Z,10.90
2022-08-21T06:46:42.191Z,10.10
2022-08-21T06:51:49.471Z,9.60
2022-08-21T06:56:52.609Z,8.50
2022-08-21T07:01:55.573Z,9.10
2022-08-21T07:06:58.591Z,8.60
2022-08-21T07:12:01.643Z,7.20
2022-08-21T07:17:04.693Z,8.80
2022-08-21T07:22:08.385Z,8.20
2022-08-21T07:27:11.275Z,7.80
2022-08-21T07:32:19.605Z,7.70
2022-08-21T07:37:24.388Z,7.30
2022-08-21T07:42:27.206Z,6.50
2022-08-21T07:47:41.898Z,7.00
2022-08-21T07:52:46.305Z,7.10
2022-08-21T07:57:49.984Z,7.00
2022-08-21T08:02:55.155Z,6.80
2022-08-21T08:07:58.085Z,7.30
2022-08-21T08:13:01.470Z,6.50
2022-08-21T08:18:05.020Z,7.00
2022-08-21T08:23:12.173Z,6.60
2022-08-21T08:28:16.928Z,6.60
2022-08-21T08:33:21.120Z,7.10
2022-08-21T08:38:27.602Z,7.40
2022-08-21T08:43:33.812Z,6.60
2022-08-21T08:48:58.199Z,7.10
2022-08-21T08:54:09.563Z,7.70
2022-08-21T08:59:23.986Z,6.10
2022-08-21T09:04:31.063Z,8.10
2022-08-21T09:10:02.233Z,6.90
2022-08-21T09:15:36.569Z,6.90
2022-08-21T09:20:42.431Z,7.10
2022-08-21T09:26:12.993Z,7.10
2022-08-21T09:31:28.774Z,8.10
2022-08-21T09:36:45.852Z,7.60
2022-08-21T09:42:05.164Z,6.90
2022-08-21T09:47:15.199Z,6.90
2022-08-21T09:52:22.892Z,7.20
2022-08-21T09:57:46.576Z,8.10
2022-08-21T10:02:54.238Z,7.60
2022-08-21T10:07:57.326Z,7.40
2022-08-21T10:13:25.979Z,7.60
2022-08-21T10:19:18.675Z,7.10
2022-08-21T10:24:30.812Z,7.40
2022-08-21T10:29:53.356Z,8.70
2022-08-21T10:35:11.948Z,7.10
2022-08-21T10:40:30.898Z,7.50
2022-08-21T10:45:50.998Z,7.40
2022-08-21T10:51:06.147Z,7.00
2022-08-21T10:56:23.157Z,7.00
2022-08-21T11:01:49.030Z,5.90
2022-08-21T11:07:00.442Z,6.10
2022-08-21T11:12:18.659Z,6.60
2022-08-21T11:17:44.600Z,6.80
2022-08-21T11:22:59.991Z,5.70
2022-08-21T11:28:25.590Z,6.50
2022-08-21T11:33:33.601Z,6.60
2022-08-21T11:38:42.071Z,6.20
2022-08-21T11:43:55.064Z,6.80
2022-08-21T11:49:28.032Z,6.50
2022-08-21T11:54:58.609Z,6.10
2022-08-21T12:00:23.192Z,5.60
2022-08-21T12:05:37.952Z,5.80
2022-08-21T12:11:00.399Z,5.80
2022-08-21T12:16:11.356Z,5.60
2022-08-21T12:21:29.674Z,6.20
2022-08-21T12:26:49.044Z,6.80
2022-08-21T12:31:59.548Z,6.30
2022-08-21T12:37:13.587Z,7.00
2022-08-21T12:42:31.010Z,5.90
2022-08-21T12:47:56.610Z,6.20
2022-08-21T12:53:18.668Z,6.80
2022-08-21T13:03:28.989Z,6.30
2022-08-21T13:08:41.782Z,6.50
2022-08-21T13:13:51.313Z,6.20
2022-08-21T13:19:03.006Z,6.90
2022-08-21T13:24:46.190Z,7.40
2022-08-21T13:30:12.437Z,6.90
2022-08-21T13:35:23.850Z,6.00
2022-08-21T13:40:34.084Z,8.50
2022-08-21T13:45:37.065Z,7.10
2022-08-21T13:50:42.479Z,7.30
2022-08-21T13:55:45.824Z,6.20
2022-08-21T14:00:52.059Z,7.00
2022-08-21T14:05:54.943Z,7.00
2022-08-21T14:10:58.903Z,6.70
2022-08-21T14:16:03.897Z,6.90
2022-08-21T14:21:09.294Z,6.90
2022-08-21T14:26:13.962Z,7.00
2022-08-21T14:31:22.454Z,6.80
2022-08-21T14:36:27.892Z,6.70
2022-08-21T14:41:30.926Z,6.40
2022-08-21T14:46:35.785Z,6.80
2022-08-21T14:51:54.183Z,7.10
2022-08-21T14:57:06.330Z,5.80
2022-08-21T15:02:10.597Z,6.90
2022-08-21T15:12:18.839Z,6.70
2022-08-21T15:17:21.760Z,8.20
2022-08-21T15:22:28.121Z,8.30
2022-08-21T15:27:32.431Z,9.80
2022-08-21T15:32:35.337Z,9.70
2022-08-21T15:37:38.584Z,5.50
2022-08-21T15:42:42.958Z,4.30
2022-08-21T15:47:47.573Z,5.20
2022-08-21T15:52:50.687Z,4.00
2022-08-21T15:57:57.175Z,4.10
2022-08-21T16:03:04.343Z,4.70
2022-08-21T16:13:24.282Z,4.00
2022-08-21T16:18:28.416Z,4.50
2022-08-21T16:23:31.580Z,3.90
2022-08-21T16:28:37.619Z,4.20
2022-08-21T16:33:44.755Z,4.50
2022-08-21T16:38:48.716Z,4.30
2022-08-21T16:43:52.802Z,4.50
2022-08-21T16:48:55.823Z,3.80
2022-08-21T16:54:00.235Z,4.30
2022-08-21T16:59:05.340Z,4.20
2022-08-21T17:04:09.916Z,4.50
2022-08-21T17:09:13.445Z,4.60
2022-08-21T17:14:20.552Z,4.60
2022-08-21T17:19:24.108Z,4.20
2022-08-21T17:24:27.393Z,4.40
2022-08-21T17:29:38.663Z,4.40
2022-08-21T17:34:41.514Z,4.60
2022-08-21T17:39:44.968Z,3.70
2022-08-21T17:44:48.518Z,4.60
2022-08-21T17:49:51.485Z,4.00
2022-08-21T17:54:54.498Z,4.50
2022-08-21T17:59:58.441Z,4.40
2022-08-21T18:05:02.231Z,4.10
2022-08-21T18:10:09.029Z,4.50
2022-08-21T18:15:18.375Z,4.20
2022-08-21T18:20:24.022Z,4.00
2022-08-21T18:25:28.893Z,3.80
2022-08-21T18:30:34.591Z,3.50
2022-08-21T18:35:38.043Z,3.50
2022-08-21T18:40:47.686Z,4.20
2022-08-21T18:45:50.589Z,5.30
2022-08-21T18:50:54.433Z,5.20
2022-08-21T18:56:04.974Z,3.60
2022-08-21T19:01:08.397Z,3.70
2022-08-21T19:06:11.970Z,3.60
2022-08-21T19:11:15.504Z,4.20
2022-08-21T19:16:26.691Z,3.30
2022-08-21T19:21:29.579Z,3.30
2022-08-21T19:26:34.304Z,3.40
2022-08-21T19:31:43.873Z,3.50
2022-08-21T19:36:46.822Z,3.50
2022-08-21T19:41:55.684Z,3.50
2022-08-21T19:47:00.028Z,3.00
2022-08-21T19:52:13.164Z,3.60
2022-08-21T19:57:18.223Z,3.60
2022-08-21T20:02:21.525Z,4.00
2022-08-21T20:07:25.088Z,3.70
2022-08-21T20:12:30.250Z,3.90
2022-08-21T20:17:33.263Z,3.00
2022-08-21T20:22:39.795Z,3.40
2022-08-21T20:27:44.986Z,3.30
2022-08-21T20:32:50.580Z,3.90
2022-08-21T20:37:58.655Z,2.90
2022-08-21T20:43:03.619Z,3.10
2022-08-21T20:48:49.473Z,2.90
2022-08-21T20:54:00.832Z,2.40
2022-08-21T20:59:22.347Z,2.80
2022-08-21T21:04:40.623Z,2.90
2022-08-21T21:09:49.129Z,1.90
2022-08-21T21:14:55.638Z,1.90
2022-08-21T21:20:06.915Z,1.80
2022-08-21T21:25:25.983Z,2.20
2022-08-21T21:30:46.979Z,1.90
2022-08-21T21:36:08.027Z,1.90
2022-08-21T21:41:22.792Z,1.90
2022-08-21T21:46:33.986Z,2.00
2022-08-21T21:52:15.707Z,1.70
2022-08-21T21:57:40.571Z,1.80
2022-08-21T22:02:51.206Z,1.80
2022-08-21T22:13:49.786Z,1.50
2022-08-21T22:19:01.246Z,1.40
2022-08-21T22:24:12.904Z,1.60
2022-08-21T22:29:19.199Z,1.50
2022-08-21T22:34:22.681Z,1.60
2022-08-21T22:39:42.407Z,1.90
2022-08-21T22:44:54.373Z,1.70
2022-08-21T22:50:04.385Z,1.60
2022-08-21T22:55:43.870Z,1.80
2022-08-21T23:01:02.916Z,1.50
2022-08-21T23:06:25.989Z,1.50
2022-08-21T23:11:42.809Z,1.60
2022-08-21T23:16:51.411Z,1.70
2022-08-21T23:22:28.756Z,1.60
2022-08-21T23:27:54.368Z,2.00
2022-08-21T23:33:00.316Z,1.60
2022-08-21T23:38:15.676Z,1.20
2022-08-21T23:43:43.599Z,1.50
2022-08-21T23:49:08.668Z,1.40
2022-08-21T23:54:54.174Z,1.30
